sensor_id;sensor_type;location;lat;lon;timestamp;pressure;altitude;pressure_sealevel;temperature;humidity
56600;BME280;51832;48.152;11.530;2024-03-02T00:04:08;94426.53;;;10.22;100.00
56600;BME280;51832;48.152;11.530;2024-03-02T00:09:09;94432.97;;;10.14;100.00
56600;BME280;51832;48.152;11.530;2024-03-02T00:14:12;94429.00;;;10.12;100.00
56600;BME280;51832;48.152;11.530;2024-03-02T00:19:12;94429.53;;;10.14;100.00
56600;BME280;51832;48.152;11.530;2024-03-02T00:24:39;94415.56;;;10.08;100.00
56600;BME280;51832;48.152;11.530;2024-03-02T00:29:40;94414.00;;;10.12;100.00
56600;BME280;51832;48.152;11.530;2024-03-02T00:34:42;94406.00;;;10.19;100.00
56600;BME280;51832;48.152;11.530;2024-03-02T00:39:43;94407.59;;;10.20;100.00
56600;BME280;51832;48.152;11.530;2024-03-02T00:44:44;94403.91;;;10.21;100.00
56600;BME280;51832;48.152;11.530;2024-03-02T00:49:47;94391.81;;;10.20;99.97
56600;BME280;51832;48.152;11.530;2024-03-02T00:54:47;94391.81;;;10.20;99.99
56600;BME280;51832;48.152;11.530;2024-03-02T00:59:48;94393.53;;;10.14;99.60
56600;BME280;51832;48.152;11.530;2024-03-02T01:04:49;94404.84;;;9.93;100.00
56600;BME280;51832;48.152;11.530;2024-03-02T01:09:49;94403.28;;;9.75;100.00
56600;BME280;51832;48.152;11.530;2024-03-02T01:14:49;94409.66;;;9.62;100.00
56600;BME280;51832;48.152;11.530;2024-03-02T01:19:50;94407.97;;;9.73;100.00
56600;BME280;51832;48.152;11.530;2024-03-02T01:24:51;94406.94;;;9.74;100.00
56600;BME280;51832;48.152;11.530;2024-03-02T01:29:52;94400.41;;;9.77;100.00
56600;BME280;51832;48.152;11.530;2024-03-02T01:34:52;94398.97;;;9.86;100.00
56600;BME280;51832;48.152;11.530;2024-03-02T01:39:53;94399.13;;;9.96;100.00
56600;BME280;51832;48.152;11.530;2024-03-02T01:44:53;94401.88;;;9.68;100.00
56600;BME280;51832;48.152;11.530;2024-03-02T01:49:54;94408.84;;;9.79;99.65
56600;BME280;51832;48.152;11.530;2024-03-02T01:54:54;94396.66;;;9.73;99.37
56600;BME280;51832;48.152;11.530;2024-03-02T01:59:55;94385.78;;;9.81;99.81
56600;BME280;51832;48.152;11.530;2024-03-02T02:04:56;94383.28;;;9.91;99.18
56600;BME280;51832;48.152;11.530;2024-03-02T02:09:56;94376.97;;;9.92;99.08
56600;BME280;51832;48.152;11.530;2024-03-02T02:14:57;94364.03;;;10.07;98.26
56600;BME280;51832;48.152;11.530;2024-03-02T02:19:57;94369.09;;;10.14;97.16
56600;BME280;51832;48.152;11.530;2024-03-02T02:24:58;94370.00;;;10.03;97.18
56600;BME280;51832;48.152;11.530;2024-03-02T02:29:58;94368.84;;;10.15;97.73
56600;BME280;51832;48.152;11.530;2024-03-02T02:35:00;94374.31;;;10.09;96.10
56600;BME280;51832;48.152;11.530;2024-03-02T02:40:00;94376.03;;;10.20;97.84
56600;BME280;51832;48.152;11.530;2024-03-02T02:45:01;94366.69;;;10.12;96.97
56600;BME280;51832;48.152;11.530;2024-03-02T02:50:06;94369.53;;;10.06;97.93
56600;BME280;51832;48.152;11.530;2024-03-02T02:55:09;94369.84;;;10.09;97.99
56600;BME280;51832;48.152;11.530;2024-03-02T03:00:14;94377.47;;;9.89;98.13
56600;BME280;51832;48.152;11.530;2024-03-02T03:05:15;94384.44;;;10.00;98.37
56600;BME280;51832;48.152;11.530;2024-03-02T03:10:16;94379.25;;;10.05;97.75
56600;BME280;51832;48.152;11.530;2024-03-02T03:15:17;94377.88;;;10.19;98.09
56600;BME280;51832;48.152;11.530;2024-03-02T03:20:17;94380.81;;;10.23;98.24
56600;BME280;51832;48.152;11.530;2024-03-02T03:25:18;94382.66;;;10.22;98.13
56600;BME280;51832;48.152;11.530;2024-03-02T03:30:18;94367.94;;;10.26;97.66
56600;BME280;51832;48.152;11.530;2024-03-02T03:35:19;94382.69;;;10.27;98.66
56600;BME280;51832;48.152;11.530;2024-03-02T03:40:19;94381.38;;;10.25;97.76
56600;BME280;51832;48.152;11.530;2024-03-02T03:45:20;94369.53;;;10.27;97.69
56600;BME280;51832;48.152;11.530;2024-03-02T03:50:21;94377.88;;;10.19;98.11
56600;BME280;51832;48.152;11.530;2024-03-02T03:55:21;94370.44;;;10.16;98.13
56600;BME280;51832;48.152;11.530;2024-03-02T04:00:22;94365.31;;;10.05;98.50
56600;BME280;51832;48.152;11.530;2024-03-02T04:05:22;94374.84;;;10.11;98.91
56600;BME280;51832;48.152;11.530;2024-03-02T04:10:23;94381.16;;;10.10;99.24
56600;BME280;51832;48.152;11.530;2024-03-02T04:15:24;94393.44;;;10.04;98.73
56600;BME280;51832;48.152;11.530;2024-03-02T04:20:25;94397.75;;;10.15;98.30
56600;BME280;51832;48.152;11.530;2024-03-02T04:25:25;94391.34;;;10.23;97.56
56600;BME280;51832;48.152;11.530;2024-03-02T04:30:26;94398.56;;;10.16;98.04
56600;BME280;51832;48.152;11.530;2024-03-02T04:35:27;94403.50;;;10.12;98.37
56600;BME280;51832;48.152;11.530;2024-03-02T04:40:27;94419.94;;;10.19;97.91
56600;BME280;51832;48.152;11.530;2024-03-02T04:45:28;94420.25;;;10.23;97.73
56600;BME280;51832;48.152;11.530;2024-03-02T04:50:29;94419.81;;;10.31;97.53
56600;BME280;51832;48.152;11.530;2024-03-02T04:55:29;94420.75;;;10.03;98.03
56600;BME280;51832;48.152;11.530;2024-03-02T05:00:49;94422.22;;;9.77;99.07
56600;BME280;51832;48.152;11.530;2024-03-02T05:05:50;94427.16;;;10.12;99.36
56600;BME280;51832;48.152;11.530;2024-03-02T05:10:50;94426.78;;;10.04;98.71
56600;BME280;51832;48.152;11.530;2024-03-02T05:15:51;94432.84;;;10.04;99.47
56600;BME280;51832;48.152;11.530;2024-03-02T05:20:51;94435.72;;;10.03;99.37
56600;BME280;51832;48.152;11.530;2024-03-02T05:25:52;94436.63;;;10.13;98.47
56600;BME280;51832;48.152;11.530;2024-03-02T05:30:52;94432.34;;;10.24;98.12
56600;BME280;51832;48.152;11.530;2024-03-02T05:35:53;94439.56;;;10.33;97.71
56600;BME280;51832;48.152;11.530;2024-03-02T05:40:53;94439.44;;;10.23;98.15
56600;BME280;51832;48.152;11.530;2024-03-02T05:45:54;94442.56;;;10.20;98.39
56600;BME280;51832;48.152;11.530;2024-03-02T05:50:54;94452.84;;;10.05;98.98
56600;BME280;51832;48.152;11.530;2024-03-02T05:55:55;94445.50;;;10.07;99.05
56600;BME280;51832;48.152;11.530;2024-03-02T06:00:56;94444.53;;;10.13;98.91
56600;BME280;51832;48.152;11.530;2024-03-02T06:05:57;94448.06;;;9.85;100.00
56600;BME280;51832;48.152;11.530;2024-03-02T06:10:57;94449.28;;;9.94;100.00
56600;BME280;51832;48.152;11.530;2024-03-02T06:15:58;94445.13;;;12.08;100.00
56600;BME280;51832;48.152;11.530;2024-03-02T06:20:58;94453.78;;;13.74;100.00
56600;BME280;51832;48.152;11.530;2024-03-02T06:25:59;94442.44;;;14.79;89.96
56600;BME280;51832;48.152;11.530;2024-03-02T06:31:00;94438.03;;;15.08;85.43
56600;BME280;51832;48.152;11.530;2024-03-02T06:36:01;94437.38;;;13.82;75.91
56600;BME280;51832;48.152;11.530;2024-03-02T06:41:02;94452.75;;;12.05;82.19
56600;BME280;51832;48.152;11.530;2024-03-02T06:46:03;94445.44;;;11.43;88.63
56600;BME280;51832;48.152;11.530;2024-03-02T06:51:03;94450.81;;;11.26;90.96
56600;BME280;51832;48.152;11.530;2024-03-02T06:56:04;94443.41;;;10.96;92.19
56600;BME280;51832;48.152;11.530;2024-03-02T07:01:05;94438.28;;;11.07;92.74
56600;BME280;51832;48.152;11.530;2024-03-02T07:06:05;94434.13;;;10.89;93.47
56600;BME280;51832;48.152;11.530;2024-03-02T07:11:06;94435.25;;;10.93;92.95
56600;BME280;51832;48.152;11.530;2024-03-02T07:16:06;94437.09;;;10.97;93.31
56600;BME280;51832;48.152;11.530;2024-03-02T07:21:27;94449.53;;;11.02;92.67
56600;BME280;51832;48.152;11.530;2024-03-02T07:26:29;94450.91;;;11.10;91.63
56600;BME280;51832;48.152;11.530;2024-03-02T07:31:32;94452.47;;;11.06;92.96
56600;BME280;51832;48.152;11.530;2024-03-02T07:36:33;94460.25;;;11.22;94.08
56600;BME280;51832;48.152;11.530;2024-03-02T07:41:33;94466.19;;;10.86;93.37
56600;BME280;51832;48.152;11.530;2024-03-02T07:46:34;94468.09;;;11.44;93.76
56600;BME280;51832;48.152;11.530;2024-03-02T07:51:35;94465.31;;;11.88;88.49
56600;BME280;51832;48.152;11.530;2024-03-02T07:56:36;94469.75;;;12.24;87.23
56600;BME280;51832;48.152;11.530;2024-03-02T08:01:37;94461.97;;;12.55;84.18
56600;BME280;51832;48.152;11.530;2024-03-02T08:06:37;94468.06;;;12.60;82.88
56600;BME280;51832;48.152;11.530;2024-03-02T08:11:38;94466.78;;;12.68;80.85
56600;BME280;51832;48.152;11.530;2024-03-02T08:16:39;94469.59;;;12.51;82.93
56600;BME280;51832;48.152;11.530;2024-03-02T08:21:40;94477.91;;;12.80;81.37
56600;BME280;51832;48.152;11.530;2024-03-02T08:26:40;94473.84;;;13.30;78.83
56600;BME280;51832;48.152;11.530;2024-03-02T08:31:41;94477.53;;;13.24;73.88
56600;BME280;51832;48.152;11.530;2024-03-02T08:36:41;94479.97;;;13.76;76.58
56600;BME280;51832;48.152;11.530;2024-03-02T08:41:44;94473.53;;;14.22;75.33
56600;BME280;51832;48.152;11.530;2024-03-02T08:46:44;94471.69;;;14.43;73.66
56600;BME280;51832;48.152;11.530;2024-03-02T08:51:45;94474.53;;;14.67;71.76
56600;BME280;51832;48.152;11.530;2024-03-02T08:56:54;94461.81;;;14.64;70.50
56600;BME280;51832;48.152;11.530;2024-03-02T09:01:54;94472.66;;;14.68;71.90
56600;BME280;51832;48.152;11.530;2024-03-02T09:06:55;94472.44;;;14.54;71.07
56600;BME280;51832;48.152;11.530;2024-03-02T09:11:55;94469.47;;;14.76;70.00
56600;BME280;51832;48.152;11.530;2024-03-02T09:16:57;94474.47;;;14.82;70.34
56600;BME280;51832;48.152;11.530;2024-03-02T09:21:58;94470.31;;;14.56;72.59
56600;BME280;51832;48.152;11.530;2024-03-02T09:26:59;94473.66;;;14.82;73.82
56600;BME280;51832;48.152;11.530;2024-03-02T09:31:59;94482.59;;;14.96;73.90
56600;BME280;51832;48.152;11.530;2024-03-02T09:37:00;94472.56;;;14.93;73.12
56600;BME280;51832;48.152;11.530;2024-03-02T09:42:00;94468.38;;;14.77;73.21
56600;BME280;51832;48.152;11.530;2024-03-02T09:47:01;94459.09;;;14.84;71.35
56600;BME280;51832;48.152;11.530;2024-03-02T09:52:03;94468.28;;;15.02;70.66
56600;BME280;51832;48.152;11.530;2024-03-02T09:57:04;94467.91;;;15.19;68.96
56600;BME280;51832;48.152;11.530;2024-03-02T10:02:04;94459.50;;;15.12;69.10
56600;BME280;51832;48.152;11.530;2024-03-02T10:07:19;94456.44;;;14.89;68.21
56600;BME280;51832;48.152;11.530;2024-03-02T10:12:20;94461.41;;;15.01;70.04
56600;BME280;51832;48.152;11.530;2024-03-02T10:17:21;94448.56;;;15.18;68.14
56600;BME280;51832;48.152;11.530;2024-03-02T10:22:23;94450.84;;;15.40;67.07
56600;BME280;51832;48.152;11.530;2024-03-02T10:27:26;94458.69;;;15.16;66.84
56600;BME280;51832;48.152;11.530;2024-03-02T10:32:27;94451.09;;;15.39;66.39
56600;BME280;51832;48.152;11.530;2024-03-02T10:37:28;94449.69;;;15.56;66.36
56600;BME280;51832;48.152;11.530;2024-03-02T10:42:28;94436.19;;;15.48;64.14
56600;BME280;51832;48.152;11.530;2024-03-02T10:47:31;94428.75;;;15.50;63.86
56600;BME280;51832;48.152;11.530;2024-03-02T10:52:32;94409.06;;;15.22;64.63
56600;BME280;51832;48.152;11.530;2024-03-02T10:57:51;94410.38;;;15.63;64.41
56600;BME280;51832;48.152;11.530;2024-03-02T11:02:56;94394.09;;;16.04;62.79
56600;BME280;51832;48.152;11.530;2024-03-02T11:08:01;94400.16;;;16.33;60.70
56600;BME280;51832;48.152;11.530;2024-03-02T11:13:09;94393.72;;;16.63;60.31
56600;BME280;51832;48.152;11.530;2024-03-02T11:18:10;94381.50;;;16.62;60.14
56600;BME280;51832;48.152;11.530;2024-03-02T11:23:12;94373.66;;;16.52;60.21
56600;BME280;51832;48.152;11.530;2024-03-02T11:28:12;94367.69;;;17.03;60.40
56600;BME280;51832;48.152;11.530;2024-03-02T11:33:13;94365.69;;;17.46;58.40
56600;BME280;51832;48.152;11.530;2024-03-02T11:38:13;94348.50;;;17.38;57.02
56600;BME280;51832;48.152;11.530;2024-03-02T11:43:14;94344.50;;;17.22;58.93
56600;BME280;51832;48.152;11.530;2024-03-02T11:48:15;94330.50;;;17.35;59.39
56600;BME280;51832;48.152;11.530;2024-03-02T11:53:16;94329.38;;;17.55;59.33
56600;BME280;51832;48.152;11.530;2024-03-02T11:58:20;94321.47;;;17.83;58.10
56600;BME280;51832;48.152;11.530;2024-03-02T12:03:25;94315.16;;;18.06;56.58
56600;BME280;51832;48.152;11.530;2024-03-02T12:08:26;94306.78;;;18.26;55.91
56600;BME280;51832;48.152;11.530;2024-03-02T12:13:27;94306.72;;;18.04;57.74
56600;BME280;51832;48.152;11.530;2024-03-02T12:18:27;94304.13;;;18.26;56.39
56600;BME280;51832;48.152;11.530;2024-03-02T12:23:28;94288.81;;;18.32;56.87
56600;BME280;51832;48.152;11.530;2024-03-02T12:28:28;94282.09;;;18.62;56.52
56600;BME280;51832;48.152;11.530;2024-03-02T12:33:29;94276.03;;;19.06;57.67
56600;BME280;51832;48.152;11.530;2024-03-02T12:38:30;94266.81;;;19.34;58.61
56600;BME280;51832;48.152;11.530;2024-03-02T12:43:31;94267.47;;;19.40;56.15
56600;BME280;51832;48.152;11.530;2024-03-02T12:48:35;94258.53;;;19.67;52.98
56600;BME280;51832;48.152;11.530;2024-03-02T12:53:36;94251.31;;;18.92;58.76
56600;BME280;51832;48.152;11.530;2024-03-02T12:58:40;94231.00;;;18.82;57.62
56600;BME280;51832;48.152;11.530;2024-03-02T13:03:43;94246.16;;;18.95;58.62
56600;BME280;51832;48.152;11.530;2024-03-02T13:08:45;94235.03;;;18.57;57.38
56600;BME280;51832;48.152;11.530;2024-03-02T13:13:45;94223.69;;;19.10;56.07
56600;BME280;51832;48.152;11.530;2024-03-02T13:18:47;94224.16;;;19.12;55.26
56600;BME280;51832;48.152;11.530;2024-03-02T13:23:47;94212.63;;;19.03;56.33
56600;BME280;51832;48.152;11.530;2024-03-02T13:28:48;94213.72;;;19.02;55.80
56600;BME280;51832;48.152;11.530;2024-03-02T13:33:48;94203.22;;;19.28;54.90
56600;BME280;51832;48.152;11.530;2024-03-02T13:38:49;94191.31;;;19.34;55.50
56600;BME280;51832;48.152;11.530;2024-03-02T13:43:49;94190.97;;;19.49;54.25
56600;BME280;51832;48.152;11.530;2024-03-02T13:48:50;94195.38;;;19.54;54.51
56600;BME280;51832;48.152;11.530;2024-03-02T13:53:51;94191.13;;;19.52;54.29
56600;BME280;51832;48.152;11.530;2024-03-02T13:58:52;94190.25;;;19.66;54.94
56600;BME280;51832;48.152;11.530;2024-03-02T14:03:52;94178.38;;;19.89;52.79
56600;BME280;51832;48.152;11.530;2024-03-02T14:08:55;94176.63;;;19.76;54.64
56600;BME280;51832;48.152;11.530;2024-03-02T14:13:55;94181.59;;;19.60;53.55
56600;BME280;51832;48.152;11.530;2024-03-02T14:18:57;94171.28;;;19.84;50.33
56600;BME280;51832;48.152;11.530;2024-03-02T14:23:59;94168.53;;;20.24;48.75
56600;BME280;51832;48.152;11.530;2024-03-02T14:29:00;94160.47;;;21.10;45.75
56600;BME280;51832;48.152;11.530;2024-03-02T14:34:02;94158.31;;;20.95;45.64
56600;BME280;51832;48.152;11.530;2024-03-02T14:39:03;94148.69;;;22.58;41.29
56600;BME280;51832;48.152;11.530;2024-03-02T14:44:04;94146.53;;;25.04;35.43
56600;BME280;51832;48.152;11.530;2024-03-02T14:49:05;94149.69;;;27.28;30.86
56600;BME280;51832;48.152;11.530;2024-03-02T14:54:05;94137.59;;;28.96;27.19
56600;BME280;51832;48.152;11.530;2024-03-02T14:59:06;94137.69;;;29.07;30.73
56600;BME280;51832;48.152;11.530;2024-03-02T15:04:06;94131.44;;;30.31;27.08
56600;BME280;51832;48.152;11.530;2024-03-02T15:09:07;94138.75;;;30.96;24.20
56600;BME280;51832;48.152;11.530;2024-03-02T15:14:08;94129.97;;;30.45;24.39
56600;BME280;51832;48.152;11.530;2024-03-02T15:19:09;94137.09;;;28.60;27.03
56600;BME280;51832;48.152;11.530;2024-03-02T15:24:09;94115.25;;;29.06;27.90
56600;BME280;51832;48.152;11.530;2024-03-02T15:29:09;94125.59;;;29.34;26.41
56600;BME280;51832;48.152;11.530;2024-03-02T15:34:10;94124.88;;;29.04;26.73
56600;BME280;51832;48.152;11.530;2024-03-02T15:39:10;94130.25;;;28.96;27.92
56600;BME280;51832;48.152;11.530;2024-03-02T15:44:11;94121.94;;;30.00;25.14
56600;BME280;51832;48.152;11.530;2024-03-02T15:49:12;94117.78;;;29.29;26.58
56600;BME280;51832;48.152;11.530;2024-03-02T15:54:12;94118.03;;;29.54;26.90
56600;BME280;51832;48.152;11.530;2024-03-02T15:59:13;94113.44;;;28.84;28.13
56600;BME280;51832;48.152;11.530;2024-03-02T16:04:13;94128.84;;;28.20;28.39
56600;BME280;51832;48.152;11.530;2024-03-02T16:09:14;94116.22;;;27.33;29.82
56600;BME280;51832;48.152;11.530;2024-03-02T16:14:14;94111.72;;;26.40;32.08
56600;BME280;51832;48.152;11.530;2024-03-02T16:19:15;94112.50;;;26.06;32.56
56600;BME280;51832;48.152;11.530;2024-03-02T16:24:15;94098.41;;;24.59;35.13
56600;BME280;51832;48.152;11.530;2024-03-02T16:29:16;94110.66;;;22.98;41.17
56600;BME280;51832;48.152;11.530;2024-03-02T16:34:16;94095.38;;;21.74;42.38
56600;BME280;51832;48.152;11.530;2024-03-02T16:39:16;94093.75;;;20.15;47.27
56600;BME280;51832;48.152;11.530;2024-03-02T16:44:17;94106.69;;;19.57;49.74
56600;BME280;51832;48.152;11.530;2024-03-02T16:49:18;94104.38;;;18.40;54.53
56600;BME280;51832;48.152;11.530;2024-03-02T16:54:18;94105.41;;;17.94;58.06
56600;BME280;51832;48.152;11.530;2024-03-02T16:59:19;94106.75;;;18.05;57.58
56600;BME280;51832;48.152;11.530;2024-03-02T17:04:19;94112.25;;;17.73;58.38
56600;BME280;51832;48.152;11.530;2024-03-02T17:09:19;94114.94;;;17.46;60.50
56600;BME280;51832;48.152;11.530;2024-03-02T17:14:20;94113.84;;;17.60;59.60
56600;BME280;51832;48.152;11.530;2024-03-02T17:19:20;94112.94;;;17.51;60.07
56600;BME280;51832;48.152;11.530;2024-03-02T17:24:21;94117.47;;;17.23;61.55
56600;BME280;51832;48.152;11.530;2024-03-02T17:29:21;94122.91;;;17.18;62.25
56600;BME280;51832;48.152;11.530;2024-03-02T17:34:22;94125.28;;;17.47;61.08
56600;BME280;51832;48.152;11.530;2024-03-02T17:39:25;94129.31;;;17.45;60.95
56600;BME280;51832;48.152;11.530;2024-03-02T17:44:26;94122.41;;;17.16;61.78
56600;BME280;51832;48.152;11.530;2024-03-02T17:49:26;94120.22;;;16.91;63.19
56600;BME280;51832;48.152;11.530;2024-03-02T17:54:27;94119.69;;;16.75;64.30
56600;BME280;51832;48.152;11.530;2024-03-02T17:59:27;94119.28;;;16.68;65.31
56600;BME280;51832;48.152;11.530;2024-03-02T18:04:27;94115.97;;;16.76;64.87
56600;BME280;51832;48.152;11.530;2024-03-02T18:09:29;94114.97;;;16.72;64.65
56600;BME280;51832;48.152;11.530;2024-03-02T18:14:30;94112.22;;;16.45;65.53
56600;BME280;51832;48.152;11.530;2024-03-02T18:19:31;94116.09;;;16.33;66.31
56600;BME280;51832;48.152;11.530;2024-03-02T18:24:32;94106.06;;;16.30;66.82
56600;BME280;51832;48.152;11.530;2024-03-02T18:29:32;94116.97;;;16.29;65.52
56600;BME280;51832;48.152;11.530;2024-03-02T18:34:33;94106.66;;;15.90;67.60
56600;BME280;51832;48.152;11.530;2024-03-02T18:39:33;94104.88;;;15.85;68.40
56600;BME280;51832;48.152;11.530;2024-03-02T18:44:35;94102.72;;;15.69;68.83
56600;BME280;51832;48.152;11.530;2024-03-02T18:49:35;94102.88;;;15.77;68.35
56600;BME280;51832;48.152;11.530;2024-03-02T18:54:35;94114.28;;;15.54;68.16
56600;BME280;51832;48.152;11.530;2024-03-02T18:59:36;94094.56;;;15.41;67.78
56600;BME280;51832;48.152;11.530;2024-03-02T19:04:36;94099.09;;;15.41;68.94
56600;BME280;51832;48.152;11.530;2024-03-02T19:09:37;94086.03;;;15.25;68.84
56600;BME280;51832;48.152;11.530;2024-03-02T19:14:37;94094.38;;;15.14;69.24
56600;BME280;51832;48.152;11.530;2024-03-02T19:19:38;94096.44;;;14.93;70.72
56600;BME280;51832;48.152;11.530;2024-03-02T19:24:39;94092.81;;;14.89;70.74
56600;BME280;51832;48.152;11.530;2024-03-02T19:29:40;94086.47;;;15.09;70.31
56600;BME280;51832;48.152;11.530;2024-03-02T19:34:40;94097.03;;;15.14;69.76
56600;BME280;51832;48.152;11.530;2024-03-02T19:39:41;94095.94;;;14.91;71.03
56600;BME280;51832;48.152;11.530;2024-03-02T19:44:42;94086.72;;;14.88;71.21
56600;BME280;51832;48.152;11.530;2024-03-02T19:49:43;94082.00;;;14.80;71.53
56600;BME280;51832;48.152;11.530;2024-03-02T19:54:43;94071.66;;;14.84;71.38
56600;BME280;51832;48.152;11.530;2024-03-02T19:59:44;94069.41;;;14.72;70.30
56600;BME280;51832;48.152;11.530;2024-03-02T20:04:46;94070.56;;;14.61;72.45
56600;BME280;51832;48.152;11.530;2024-03-02T20:09:47;94059.91;;;14.42;73.30
56600;BME280;51832;48.152;11.530;2024-03-02T20:14:48;94054.56;;;14.47;73.57
56600;BME280;51832;48.152;11.530;2024-03-02T20:19:48;94056.63;;;14.50;73.23
56600;BME280;51832;48.152;11.530;2024-03-02T20:24:49;94055.19;;;14.34;73.64
56600;BME280;51832;48.152;11.530;2024-03-02T20:29:52;94046.25;;;14.25;74.11
56600;BME280;51832;48.152;11.530;2024-03-02T20:34:52;94041.44;;;14.03;74.93
56600;BME280;51832;48.152;11.530;2024-03-02T20:39:53;94041.88;;;14.10;75.38
56600;BME280;51832;48.152;11.530;2024-03-02T20:44:54;94034.94;;;13.85;76.45
56600;BME280;51832;48.152;11.530;2024-03-02T20:49:55;94022.16;;;13.98;76.41
56600;BME280;51832;48.152;11.530;2024-03-02T20:54:55;94016.03;;;14.02;76.56
56600;BME280;51832;48.152;11.530;2024-03-02T20:59:56;94015.06;;;13.93;76.66
56600;BME280;51832;48.152;11.530;2024-03-02T21:04:56;94012.72;;;13.86;76.56
56600;BME280;51832;48.152;11.530;2024-03-02T21:09:57;94004.56;;;13.83;76.65
56600;BME280;51832;48.152;11.530;2024-03-02T21:14:57;94003.97;;;13.57;77.91
56600;BME280;51832;48.152;11.530;2024-03-02T21:19:57;94014.53;;;13.57;77.96
56600;BME280;51832;48.152;11.530;2024-03-02T21:24:58;94001.84;;;13.10;79.80
56600;BME280;51832;48.152;11.530;2024-03-02T21:30:01;93987.50;;;13.31;79.55
56600;BME280;51832;48.152;11.530;2024-03-02T21:35:04;93987.69;;;12.91;81.24
56600;BME280;51832;48.152;11.530;2024-03-02T21:40:05;93986.41;;;12.83;81.37
56600;BME280;51832;48.152;11.530;2024-03-02T21:45:06;93978.44;;;12.88;81.42
56600;BME280;51832;48.152;11.530;2024-03-02T21:50:07;93978.97;;;12.85;81.46
56600;BME280;51832;48.152;11.530;2024-03-02T21:55:09;93965.31;;;12.73;81.28
56600;BME280;51832;48.152;11.530;2024-03-02T22:00:09;93963.72;;;12.82;81.69
56600;BME280;51832;48.152;11.530;2024-03-02T22:05:10;93970.69;;;12.48;81.42
56600;BME280;51832;48.152;11.530;2024-03-02T22:10:11;93960.22;;;12.27;83.83
56600;BME280;51832;48.152;11.530;2024-03-02T22:15:11;93960.22;;;12.27;84.26
56600;BME280;51832;48.152;11.530;2024-03-02T22:20:11;93957.09;;;12.05;84.71
56600;BME280;51832;48.152;11.530;2024-03-02T22:25:12;93963.69;;;11.92;86.44
56600;BME280;51832;48.152;11.530;2024-03-02T22:30:12;93964.75;;;11.66;87.70
56600;BME280;51832;48.152;11.530;2024-03-02T22:35:13;93958.19;;;11.79;87.13
56600;BME280;51832;48.152;11.530;2024-03-02T22:40:13;93953.19;;;11.77;86.61
56600;BME280;51832;48.152;11.530;2024-03-02T22:45:14;93960.56;;;11.80;87.78
56600;BME280;51832;48.152;11.530;2024-03-02T22:50:14;93961.59;;;11.94;86.27
56600;BME280;51832;48.152;11.530;2024-03-02T22:55:15;93963.44;;;11.68;87.32
56600;BME280;51832;48.152;11.530;2024-03-02T23:00:16;93960.00;;;11.68;87.48
56600;BME280;51832;48.152;11.530;2024-03-02T23:05:34;93963.94;;;11.50;88.72
56600;BME280;51832;48.152;11.530;2024-03-02T23:10:34;93976.88;;;11.47;86.86
56600;BME280;51832;48.152;11.530;2024-03-02T23:15:35;93970.28;;;11.44;88.96
56600;BME280;51832;48.152;11.530;2024-03-02T23:20:35;93981.38;;;11.61;87.88
56600;BME280;51832;48.152;11.530;2024-03-02T23:25:36;93966.06;;;11.99;85.72
56600;BME280;51832;48.152;11.530;2024-03-02T23:30:36;93952.63;;;11.75;85.98
56600;BME280;51832;48.152;11.530;2024-03-02T23:35:37;93950.50;;;11.62;86.44
56600;BME280;51832;48.152;11.530;2024-03-02T23:40:37;93950.00;;;11.60;86.55
56600;BME280;51832;48.152;11.530;2024-03-02T23:45:57;93950.28;;;11.43;88.02
56600;BME280;51832;48.152;11.530;2024-03-02T23:50:58;93953.94;;;11.22;89.23
56600;BME280;51832;48.152;11.530;2024-03-02T23:56:08;93947.63;;;11.58;87.12
